createdAt,value
2017-01-13T00:00:43.513Z,99.99
2017-01-13T00:01:54.367Z,99.99
2017-01-13T00:03:05.298Z,99.99
2017-01-13T00:04:16.556Z,99.99
2017-01-13T00:05:27.510Z,99.99
2017-01-13T00:06:38.575Z,99.99
2017-01-13T00:07:49.589Z,99.98
2017-01-13T00:09:00.950Z,99.99
2017-01-13T00:10:11.885Z,99.99
2017-01-13T00:11:22.868Z,99.99
2017-01-13T00:12:33.904Z,99.99
2017-01-13T00:13:44.871Z,99.99
2017-01-13T00:14:55.766Z,99.99
2017-01-13T00:16:06.649Z,99.99
2017-01-13T00:17:17.303Z,99.99
2017-01-13T00:18:42.441Z,99.5
2017-01-13T00:19:53.150Z,99.69
2017-01-13T00:21:04.072Z,99.98
2017-01-13T00:22:14.694Z,99.11
2017-01-13T00:23:25.400Z,99.88
2017-01-13T00:24:36.007Z,99.3
2017-01-13T00:25:46.922Z,98.82
2017-01-13T00:26:57.653Z,98.34
2017-01-13T00:28:08.381Z,98.25
2017-01-13T00:29:19.032Z,98.2
2017-01-13T00:30:29.779Z,98.63
2017-01-13T00:31:40.649Z,98.54
2017-01-13T00:32:51.367Z,98.82
2017-01-13T00:34:02.125Z,98.82
2017-01-13T00:35:12.869Z,98.05
2017-01-13T00:36:23.583Z,98.63
2017-01-13T00:37:34.591Z,98.15
2017-01-13T00:38:45.359Z,97.81
2017-01-13T00:39:56.079Z,97.77
2017-01-13T00:41:06.697Z,97.38
2017-01-13T00:42:17.335Z,97.77
2017-01-13T00:43:28.131Z,97.38
2017-01-13T00:44:38.723Z,97.86
2017-01-13T00:45:49.401Z,97.67
2017-01-13T00:47:00.028Z,98.05
2017-01-13T00:49:36.023Z,97.47
2017-01-13T00:50:46.761Z,97.57
2017-01-13T00:51:57.503Z,97.67
2017-01-13T00:53:08.249Z,98.25
2017-01-13T00:54:19.210Z,98.44
2017-01-13T00:55:30.015Z,98.05
2017-01-13T00:58:05.925Z,97.67
2017-01-13T00:59:16.685Z,98.34
2017-01-13T01:00:27.657Z,98.15
2017-01-13T01:01:38.419Z,97.96
2017-01-13T01:02:49.745Z,98.44
2017-01-13T01:04:00.473Z,98.05
2017-01-13T01:05:11.356Z,97.96
2017-01-13T01:06:22.038Z,98.34
2017-01-13T01:07:32.796Z,98.54
2017-01-13T01:08:44.581Z,98.92
2017-01-13T01:09:55.285Z,98.63
2017-01-13T01:11:05.868Z,98.82
2017-01-13T01:12:16.449Z,98.05
2017-01-13T01:13:27.030Z,98.44
2017-01-13T01:14:37.614Z,98.49
2017-01-13T01:15:48.239Z,98.82
2017-01-13T01:17:13.541Z,97.81
2017-01-13T01:18:24.178Z,97.86
2017-01-13T01:19:34.766Z,98.2
2017-01-13T01:20:45.350Z,98.05
2017-01-13T01:21:56.306Z,97.81
2017-01-13T01:23:06.888Z,97.33
2017-01-13T01:24:17.465Z,98
2017-01-13T01:25:28.047Z,98
2017-01-13T01:26:38.626Z,97.72
2017-01-13T01:27:49.254Z,97.47
2017-01-13T01:30:24.930Z,98.82
2017-01-13T01:31:35.507Z,98.05
2017-01-13T01:32:46.090Z,98.44
2017-01-13T01:33:56.869Z,98.34
2017-01-13T01:35:07.452Z,97.86
2017-01-13T01:36:18.034Z,98.34
2017-01-13T01:37:28.616Z,97.72
2017-01-13T01:38:39.203Z,97.72
2017-01-13T01:39:49.781Z,97.14
2017-01-13T01:41:00.411Z,97.72
2017-01-13T01:42:10.992Z,97.91
2017-01-13T01:43:21.571Z,97.24
2017-01-13T01:44:32.159Z,97.33
2017-01-13T01:45:42.748Z,97.86
2017-01-13T01:46:53.360Z,97.47
2017-01-13T01:48:03.949Z,97.04
2017-01-13T01:49:14.539Z,97.04
2017-01-13T01:50:25.128Z,97.09
2017-01-13T01:51:35.710Z,96.85
2017-01-13T01:52:46.303Z,96.46
2017-01-13T01:53:56.960Z,96.27
2017-01-13T01:55:07.642Z,96.94
2017-01-13T01:56:18.646Z,97.33
2017-01-13T01:57:29.235Z,97.33
2017-01-13T01:58:39.982Z,97.33
2017-01-13T01:59:50.854Z,97.24
2017-01-13T02:01:01.558Z,96.37
2017-01-13T02:02:12.715Z,96.37
2017-01-13T02:03:23.520Z,96.56
2017-01-13T02:04:34.349Z,95.79
2017-01-13T02:05:59.632Z,95.69
2017-01-13T02:07:10.788Z,96.08
2017-01-13T02:08:21.594Z,95.21
2017-01-13T02:09:32.406Z,95.59
2017-01-13T02:10:43.214Z,94.92
2017-01-13T02:11:54.020Z,95.11
2017-01-13T02:13:05.077Z,95.31
2017-01-13T02:14:15.885Z,95.89
2017-01-13T02:15:26.701Z,94.82
2017-01-13T02:16:37.541Z,94.54
2017-01-13T02:17:48.350Z,94.44
2017-01-13T02:18:59.532Z,94.34
2017-01-13T02:20:10.342Z,94.82
2017-01-13T02:21:21.193Z,95.5
2017-01-13T02:22:32.104Z,94.92
2017-01-13T02:23:57.802Z,94.44
2017-01-13T02:25:09.218Z,94.54
2017-01-13T02:26:20.064Z,94.24
2017-01-13T02:27:30.869Z,93.86
2017-01-13T02:28:41.676Z,94.24
2017-01-13T02:29:52.831Z,94.63
2017-01-13T02:31:03.638Z,94.73
2017-01-13T02:32:14.443Z,95.21
2017-01-13T02:33:25.245Z,94.73
2017-01-13T02:34:36.047Z,94.63
2017-01-13T02:35:46.856Z,95.21
2017-01-13T02:36:57.663Z,95.02
2017-01-13T02:38:08.469Z,94.92
2017-01-13T02:39:19.276Z,95.31
2017-01-13T02:40:30.080Z,95.11
2017-01-13T02:41:41.093Z,95.4
2017-01-13T02:42:51.834Z,95.79
2017-01-13T02:44:02.418Z,95.89
2017-01-13T02:45:12.997Z,95.98
2017-01-13T02:46:23.644Z,96.08
2017-01-13T02:47:34.653Z,95.79
2017-01-13T02:48:45.463Z,95.69
2017-01-13T02:49:56.269Z,95.89
2017-01-13T02:51:07.075Z,96.08
2017-01-13T02:52:17.884Z,95.79
2017-01-13T02:53:28.687Z,95.89
2017-01-13T02:54:39.490Z,95.98
2017-01-13T02:55:50.294Z,96.37
2017-01-13T02:57:01.101Z,95.89
2017-01-13T02:58:11.935Z,96.27
2017-01-13T02:59:22.742Z,96.27
2017-01-13T03:00:33.549Z,96.75
2017-01-13T03:01:44.356Z,96.56
2017-01-13T03:02:55.160Z,96.94
2017-01-13T03:04:05.963Z,96.85
2017-01-13T03:05:16.774Z,97.04
2017-01-13T03:06:27.579Z,97.72
2017-01-13T03:07:38.339Z,97.04
2017-01-13T03:08:49.099Z,96.99
2017-01-13T03:09:59.890Z,97.14
2017-01-13T03:11:11.026Z,96.75
2017-01-13T03:12:21.833Z,96.56
2017-01-13T03:13:32.595Z,97.04
2017-01-13T03:14:43.349Z,97.04
2017-01-13T03:15:55.437Z,96.66
2017-01-13T03:17:05.967Z,96.27
2017-01-13T03:18:16.585Z,96.37
2017-01-13T03:19:41.800Z,96.75
2017-01-13T03:20:52.609Z,96.27
2017-01-13T03:22:03.883Z,96.27
2017-01-13T03:23:14.708Z,96.56
2017-01-13T03:24:25.577Z,96.37
2017-01-13T03:25:36.441Z,96.85
2017-01-13T03:26:47.142Z,97.14
2017-01-13T03:27:57.857Z,96.85
2017-01-13T03:29:08.608Z,97.52
2017-01-13T03:30:19.415Z,97.57
2017-01-13T03:31:30.198Z,97.67
2017-01-13T03:32:55.807Z,97.47
2017-01-13T03:34:06.560Z,97.76
2017-01-13T03:35:17.500Z,96.8
2017-01-13T03:36:28.355Z,97.72
2017-01-13T03:37:39.125Z,97.67
2017-01-13T03:38:49.883Z,97.67
2017-01-13T03:40:00.649Z,97.42
2017-01-13T03:41:12.065Z,97.28
2017-01-13T03:42:22.893Z,97.72
2017-01-13T03:43:33.710Z,97.72
2017-01-13T03:44:44.522Z,97.86
2017-01-13T03:45:55.332Z,97.57
2017-01-13T03:47:06.139Z,97.67
2017-01-13T03:48:16.976Z,97.19
2017-01-13T03:49:27.783Z,97.42
2017-01-13T03:50:38.943Z,97.47
2017-01-13T03:51:49.750Z,97.38
2017-01-13T03:53:00.561Z,97.57
2017-01-13T03:54:11.376Z,97.47
2017-01-13T03:55:22.185Z,97.81
2017-01-13T03:56:32.989Z,98.05
2017-01-13T03:57:43.796Z,97.76
2017-01-13T03:58:54.608Z,97.38
2017-01-13T04:00:05.412Z,97.52
2017-01-13T04:01:16.220Z,97.91
2017-01-13T04:02:27.227Z,97.57
2017-01-13T04:03:38.030Z,97.38
2017-01-13T04:04:48.835Z,97.52
2017-01-13T04:05:59.651Z,97.38
2017-01-13T04:07:10.459Z,97.67
2017-01-13T04:08:21.265Z,97.47
2017-01-13T04:09:32.678Z,97.57
2017-01-13T04:10:43.485Z,97.67
2017-01-13T04:11:54.291Z,97.57
2017-01-13T04:13:05.707Z,97.38
2017-01-13T04:14:16.514Z,97.19
2017-01-13T04:15:27.318Z,97.47
2017-01-13T04:16:38.130Z,97.67
2017-01-13T04:17:48.958Z,97.57
2017-01-13T04:18:59.762Z,98.05
2017-01-13T04:20:10.767Z,97.38
2017-01-13T04:21:21.574Z,98.05
2017-01-13T04:22:32.382Z,97.38
2017-01-13T04:23:43.184Z,98.24
2017-01-13T04:24:53.992Z,97.57
2017-01-13T04:26:04.797Z,97.86
2017-01-13T04:27:15.606Z,97.38
2017-01-13T04:28:26.410Z,97.86
2017-01-13T04:29:37.212Z,97.76
2017-01-13T04:30:48.022Z,98.05
2017-01-13T04:31:59.177Z,98.05
2017-01-13T04:33:09.986Z,98
2017-01-13T04:34:20.792Z,97.81
2017-01-13T04:35:31.600Z,97.57
2017-01-13T04:36:42.407Z,97.96
2017-01-13T04:37:53.586Z,97.76
2017-01-13T04:39:04.395Z,97.96
2017-01-13T04:40:15.204Z,98.05
2017-01-13T04:41:26.010Z,98.24
2017-01-13T04:42:36.813Z,97.86
2017-01-13T04:43:47.821Z,97.47
2017-01-13T04:44:58.625Z,97.57
2017-01-13T04:46:09.428Z,97.47
2017-01-13T04:47:20.236Z,97.76
2017-01-13T04:48:31.039Z,97.38
2017-01-13T04:49:42.193Z,97.38
2017-01-13T04:50:52.998Z,97.38
2017-01-13T04:52:03.803Z,98.15
2017-01-13T04:53:14.631Z,97.76
2017-01-13T04:54:25.434Z,97.76
2017-01-13T04:55:36.237Z,97.47
2017-01-13T04:56:47.042Z,97.76
2017-01-13T04:57:57.850Z,97.86
2017-01-13T04:59:08.654Z,97.57
2017-01-13T05:00:19.460Z,97.28
2017-01-13T05:01:45.087Z,97.28
2017-01-13T05:02:55.890Z,97.57
2017-01-13T05:04:06.694Z,97.76
2017-01-13T05:05:17.498Z,97.67
2017-01-13T05:06:28.326Z,97.57
2017-01-13T05:07:39.486Z,97.76
2017-01-13T05:08:50.291Z,97.86
2017-01-13T05:10:01.095Z,97.57
2017-01-13T05:11:11.902Z,97.86
2017-01-13T05:12:22.708Z,97.76
2017-01-13T05:13:33.514Z,97.38
2017-01-13T05:14:44.317Z,97.86
2017-01-13T05:15:55.140Z,97.76
2017-01-13T05:17:05.944Z,97.28
2017-01-13T05:18:16.753Z,97.47
2017-01-13T05:19:27.757Z,97.28
2017-01-13T05:20:38.559Z,97.67
2017-01-13T05:21:49.369Z,97.76
2017-01-13T05:23:00.203Z,97.47
2017-01-13T05:24:11.012Z,97.57
2017-01-13T05:25:22.018Z,97.76
2017-01-13T05:26:32.826Z,96.7
2017-01-13T05:27:43.630Z,97.19
2017-01-13T05:28:54.434Z,97.38
2017-01-13T05:30:05.240Z,97.28
2017-01-13T05:31:16.404Z,97.57
2017-01-13T05:32:27.212Z,97.57
2017-01-13T05:33:38.016Z,97.38
2017-01-13T05:34:48.823Z,97.57
2017-01-13T05:35:59.626Z,97.38
2017-01-13T05:37:10.783Z,97.28
2017-01-13T05:38:21.587Z,97.57
2017-01-13T05:39:32.391Z,97.19
2017-01-13T05:40:43.191Z,97.47
2017-01-13T05:41:53.998Z,97.47
2017-01-13T05:43:05.159Z,97.67
2017-01-13T05:44:15.965Z,97.76
2017-01-13T05:45:26.778Z,97.57
2017-01-13T05:46:37.580Z,98.24
2017-01-13T05:47:48.387Z,97.38
2017-01-13T05:48:59.391Z,97.76
2017-01-13T05:50:10.198Z,97.86
2017-01-13T05:51:21.005Z,97.67
2017-01-13T05:52:31.808Z,97.38
2017-01-13T05:53:42.614Z,98.05
2017-01-13T05:54:53.626Z,97.76
2017-01-13T05:57:44.177Z,98.72
2017-01-13T05:58:54.989Z,98.72
2017-01-13T06:00:06.142Z,98.72
2017-01-13T06:01:16.945Z,98.44
2017-01-13T06:02:27.751Z,98.15
2017-01-13T06:03:38.569Z,98.72
2017-01-13T06:04:49.388Z,98.05
2017-01-13T06:06:00.194Z,98.54
2017-01-13T06:07:11.003Z,98.72
2017-01-13T06:08:21.806Z,98.44
2017-01-13T06:09:32.617Z,98.05
2017-01-13T06:10:43.422Z,97.86
2017-01-13T06:11:54.427Z,97.96
2017-01-13T06:13:05.236Z,97.67
2017-01-13T06:14:16.041Z,97.38
2017-01-13T06:15:26.845Z,97.57
2017-01-13T06:16:52.122Z,97.67
2017-01-13T06:18:03.129Z,98.05
2017-01-13T06:19:13.933Z,97.67
2017-01-13T06:20:24.742Z,97.96
2017-01-13T06:21:35.548Z,97.76
2017-01-13T06:22:46.353Z,97.67
2017-01-13T06:23:57.182Z,97.38
2017-01-13T06:25:07.993Z,97.76
2017-01-13T06:26:19.408Z,97.76
2017-01-13T06:27:30.213Z,97.96
2017-01-13T06:28:41.016Z,98.05
2017-01-13T06:29:51.817Z,97.57
2017-01-13T06:31:02.626Z,97.42
2017-01-13T06:32:13.434Z,97.28
2017-01-13T06:33:24.255Z,98.34
2017-01-13T06:34:35.869Z,97.81
2017-01-13T06:35:46.678Z,97.42
2017-01-13T06:36:57.483Z,97.33
2017-01-13T06:38:08.313Z,97.42
2017-01-13T06:39:19.116Z,97.62
2017-01-13T06:40:30.122Z,98
2017-01-13T06:41:40.932Z,98.2
2017-01-13T06:42:51.737Z,98.82
2017-01-13T06:44:02.548Z,98.2
2017-01-13T06:45:13.354Z,98.15
2017-01-13T06:46:24.158Z,97.96
2017-01-13T06:47:34.964Z,97.96
2017-01-13T06:48:45.771Z,98.05
2017-01-13T06:49:57.178Z,97.91
2017-01-13T06:51:07.983Z,98.1
2017-01-13T06:52:19.166Z,98.2
2017-01-13T06:53:29.973Z,98
2017-01-13T06:54:40.788Z,98.05
2017-01-13T06:55:51.598Z,98.15
2017-01-13T06:57:02.402Z,98.1
2017-01-13T06:58:13.558Z,97.91
2017-01-13T06:59:24.366Z,97.33
2017-01-13T07:00:35.170Z,97.62
2017-01-13T07:01:45.971Z,97.62
2017-01-13T07:02:56.777Z,97.52
2017-01-13T07:04:07.800Z,98
2017-01-13T07:05:18.611Z,97.42
2017-01-13T07:06:29.416Z,97.52
2017-01-13T07:07:40.221Z,97.72
2017-01-13T07:08:51.033Z,97.14
2017-01-13T07:10:02.088Z,97.62
2017-01-13T07:11:27.361Z,97.33
2017-01-13T07:12:38.165Z,97.24
2017-01-13T07:13:48.969Z,97.04
2017-01-13T07:14:59.778Z,97.52
2017-01-13T07:16:10.585Z,97.14
2017-01-13T07:17:21.389Z,97.81
2017-01-13T07:18:32.195Z,97.72
2017-01-13T07:19:42.998Z,97.24
2017-01-13T07:20:53.801Z,97.33
2017-01-13T07:22:04.604Z,97.33
2017-01-13T07:23:15.410Z,97.24
2017-01-13T07:24:26.225Z,97.24
2017-01-13T07:25:37.035Z,96.94
2017-01-13T07:26:48.069Z,97.04
2017-01-13T07:27:58.875Z,96.85
2017-01-13T07:29:09.686Z,97.72
2017-01-13T07:30:20.505Z,96.66
2017-01-13T07:31:45.781Z,97.04
2017-01-13T07:32:56.785Z,96.94
2017-01-13T07:34:07.589Z,97.24
2017-01-13T07:35:18.402Z,97.72
2017-01-13T07:36:29.208Z,97.62
2017-01-13T07:37:54.837Z,97.42
2017-01-13T07:39:05.642Z,97.91
2017-01-13T07:40:16.447Z,97.42
2017-01-13T07:41:27.257Z,97.96
2017-01-13T07:42:38.067Z,97.81
2017-01-13T07:43:48.879Z,98.2
2017-01-13T07:44:59.704Z,97.42
2017-01-13T07:46:10.510Z,97.72
2017-01-13T07:47:21.321Z,97.72
2017-01-13T07:48:32.131Z,97.72
2017-01-13T07:49:42.936Z,97.33
2017-01-13T07:50:54.354Z,97.62
2017-01-13T07:52:05.159Z,97.62
2017-01-13T07:53:15.968Z,97.62
2017-01-13T07:54:26.979Z,97.62
2017-01-13T07:55:38.393Z,97.52
2017-01-13T07:56:49.201Z,97.42
2017-01-13T07:58:00.009Z,97.72
2017-01-13T07:59:10.823Z,97.62
2017-01-13T08:00:21.640Z,97.72
2017-01-13T08:01:32.452Z,97.33
2017-01-13T08:02:43.257Z,97.42
2017-01-13T08:03:54.065Z,98.1
2017-01-13T08:05:04.913Z,97.42
2017-01-13T08:06:15.722Z,97.52
2017-01-13T08:07:26.528Z,97.42
2017-01-13T08:08:37.335Z,97.81
2017-01-13T08:09:48.145Z,97.62
2017-01-13T08:10:58.951Z,98.29
2017-01-13T08:12:09.760Z,98.29
2017-01-13T08:13:20.598Z,98.49
2017-01-13T08:14:31.408Z,98.49
2017-01-13T08:15:42.265Z,99.26
2017-01-13T08:16:53.073Z,98.97
2017-01-13T08:18:03.884Z,99.16
2017-01-13T08:19:14.694Z,99.45
2017-01-13T08:20:25.503Z,98.77
2017-01-13T08:21:36.312Z,99.07
2017-01-13T08:22:47.143Z,99.26
2017-01-13T08:23:58.152Z,99.07
2017-01-13T08:25:08.958Z,99.35
2017-01-13T08:26:19.766Z,98.97
2017-01-13T08:27:30.571Z,99.45
2017-01-13T08:28:41.382Z,99.07
2017-01-13T08:29:52.387Z,99.07
2017-01-13T08:31:03.200Z,98.97
2017-01-13T08:32:14.008Z,99.45
2017-01-13T08:33:24.830Z,98.77
2017-01-13T08:34:35.638Z,99.35
2017-01-13T08:35:46.695Z,99.35
2017-01-13T08:36:57.505Z,99.45
2017-01-13T08:38:08.312Z,98.49
2017-01-13T08:39:19.116Z,98.87
2017-01-13T08:40:29.954Z,98.77
2017-01-13T08:41:40.775Z,98.39
2017-01-13T08:42:52.208Z,98.49
2017-01-13T08:44:02.561Z,98.77
2017-01-13T08:45:12.923Z,98.1
2017-01-13T08:46:23.278Z,97.52
2017-01-13T08:47:33.632Z,97.42
2017-01-13T08:50:08.914Z,97.91
2017-01-13T08:51:19.267Z,97.81
2017-01-13T08:52:29.617Z,97.42
2017-01-13T08:53:40.170Z,98
2017-01-13T08:54:50.523Z,97.81
2017-01-13T08:56:00.875Z,97.42
2017-01-13T08:57:11.232Z,98
2017-01-13T08:58:21.588Z,97.72
2017-01-13T08:59:32.505Z,97.81
2017-01-13T09:00:42.858Z,97.62
2017-01-13T09:01:53.215Z,97.81
2017-01-13T09:03:03.576Z,98.1
2017-01-13T09:04:14.131Z,98.1
2017-01-13T09:05:24.487Z,97.81
2017-01-13T09:06:34.874Z,98.2
2017-01-13T09:07:59.791Z,97.81
2017-01-13T09:09:10.145Z,98.15
2017-01-13T09:10:20.499Z,98.2
2017-01-13T09:11:30.856Z,98.77
2017-01-13T09:12:41.216Z,98.77
2017-01-13T09:13:51.579Z,98.2
2017-01-13T09:15:02.133Z,98.1
2017-01-13T09:16:12.491Z,98.2
2017-01-13T09:17:22.849Z,97.72
2017-01-13T09:18:33.765Z,97.42
2017-01-13T09:19:44.123Z,97.42
2017-01-13T09:20:54.674Z,97.42
2017-01-13T09:22:05.033Z,97.62
2017-01-13T09:23:15.398Z,97.42
2017-01-13T09:24:25.765Z,97.62
2017-01-13T09:25:36.124Z,97.42
2017-01-13T09:26:46.779Z,97.86
2017-01-13T09:27:57.139Z,97.67
2017-01-13T09:29:22.063Z,97.47
2017-01-13T09:30:32.425Z,97.19
2017-01-13T09:31:42.785Z,97.28
2017-01-13T09:32:53.144Z,97.91
2017-01-13T09:34:03.511Z,97.81
2017-01-13T09:35:13.909Z,98.1
2017-01-13T09:36:24.264Z,98.29
2017-01-13T09:37:34.924Z,97.42
2017-01-13T09:38:45.307Z,98.15
2017-01-13T09:39:55.694Z,97.47
2017-01-13T09:41:06.049Z,97.67
2017-01-13T09:42:16.408Z,97.28
2017-01-13T09:43:26.768Z,97.81
2017-01-13T09:44:37.119Z,98.05
2017-01-13T09:45:47.475Z,97.77
2017-01-13T09:46:57.826Z,97.86
2017-01-13T09:48:08.183Z,97.28
2017-01-13T09:49:18.537Z,97.09
2017-01-13T09:50:28.897Z,96.8
2017-01-13T09:51:39.253Z,97.09
2017-01-13T09:52:49.610Z,97.19
2017-01-13T09:53:59.974Z,97.28
2017-01-13T09:55:10.892Z,97.28
2017-01-13T09:56:21.248Z,96.89
2017-01-13T09:57:31.610Z,96.41
2017-01-13T09:58:41.967Z,96.61
2017-01-13T09:59:52.318Z,96.89
2017-01-13T10:01:02.675Z,96.89
2017-01-13T10:02:13.039Z,97.09
2017-01-13T10:03:23.965Z,97.77
2017-01-13T10:04:34.316Z,97.77
2017-01-13T10:05:44.670Z,97.67
2017-01-13T10:06:55.224Z,97.77
2017-01-13T10:08:05.585Z,96.89
2017-01-13T10:09:15.968Z,97.09
2017-01-13T10:10:26.323Z,96.7
2017-01-13T10:11:51.240Z,96.41
2017-01-13T10:13:01.606Z,96.51
2017-01-13T10:14:11.967Z,96.89
2017-01-13T10:15:22.325Z,96.7
2017-01-13T10:16:47.267Z,96.41
2017-01-13T10:18:12.189Z,96.75
2017-01-13T10:19:22.537Z,96.84
2017-01-13T10:20:32.893Z,96.56
2017-01-13T10:21:43.242Z,96.08
2017-01-13T10:22:53.796Z,95.59
2017-01-13T10:24:04.155Z,95.59
2017-01-13T10:25:14.522Z,95.79
2017-01-13T10:26:24.912Z,96.27
2017-01-13T10:27:35.274Z,95.4
2017-01-13T10:28:45.823Z,96.08
2017-01-13T10:29:56.175Z,95.98
2017-01-13T10:31:06.527Z,96.17
2017-01-13T10:32:16.882Z,96.66
2017-01-13T10:33:27.233Z,96.94
2017-01-13T10:34:38.470Z,95.98
2017-01-13T10:35:48.823Z,94.63
2017-01-13T10:36:59.186Z,95.11
2017-01-13T10:38:09.540Z,94.82
2017-01-13T10:39:19.892Z,94.92
2017-01-13T10:41:55.378Z,95.11
2017-01-13T10:43:05.741Z,94.82
2017-01-13T10:44:16.101Z,94.87
2017-01-13T10:45:26.457Z,94.87
2017-01-13T10:46:37.110Z,95.54
2017-01-13T10:48:02.031Z,94.87
2017-01-13T10:49:12.386Z,94.58
2017-01-13T10:50:23.306Z,94.38
2017-01-13T10:51:33.662Z,94.29
2017-01-13T10:52:44.018Z,94.2
2017-01-13T10:53:54.376Z,95.06
2017-01-13T10:55:04.739Z,95.35
2017-01-13T10:56:15.298Z,94.87
2017-01-13T10:57:25.667Z,94.96
2017-01-13T10:58:36.025Z,94.68
2017-01-13T10:59:46.390Z,94.77
2017-01-13T11:02:21.661Z,95.16
2017-01-13T11:03:33.164Z,95.16
2017-01-13T11:04:44.090Z,95.35
2017-01-13T11:05:54.450Z,95.35
2017-01-13T11:07:04.811Z,95.35
2017-01-13T11:08:15.179Z,96.03
2017-01-13T11:09:25.810Z,95.83
2017-01-13T11:10:37.501Z,95.74
2017-01-13T11:11:47.940Z,95.74
2017-01-13T11:12:58.389Z,96.03
2017-01-13T11:14:08.875Z,96.31
2017-01-13T11:15:19.240Z,96.41
2017-01-13T11:16:29.600Z,96.22
2017-01-13T11:17:39.955Z,96.89
2017-01-13T11:18:50.414Z,96.7
2017-01-13T11:20:00.777Z,96.51
2017-01-13T11:21:11.141Z,97.09
2017-01-13T11:22:21.507Z,96.41
2017-01-13T11:23:31.871Z,97.09
2017-01-13T11:24:42.228Z,96.7
2017-01-13T11:25:52.592Z,96.8
2017-01-13T11:27:02.948Z,96.12
2017-01-13T11:28:13.311Z,95.93
2017-01-13T11:29:23.674Z,95.64
2017-01-13T11:30:34.032Z,95.83
2017-01-13T11:31:44.390Z,95.93
2017-01-13T11:32:54.749Z,95.25
2017-01-13T11:34:19.667Z,94.82
2017-01-13T11:35:30.021Z,94.43
